createdAt,value
2022-09-05T00:02:36.110Z,3.10
2022-09-05T00:05:32.840Z,2.80
2022-09-05T00:08:12.683Z,2.83
2022-09-05T00:24:26.948Z,2.87
2022-09-05T00:24:36.939Z,2.53
2022-09-05T00:26:05.217Z,2.87
2022-09-05T00:28:45.936Z,3.23
2022-09-05T00:31:55.129Z,2.90
2022-09-05T00:34:48.142Z,3.37
2022-09-05T00:37:32.344Z,3.33
2022-09-05T00:40:20.480Z,3.00
2022-09-05T00:42:50.994Z,3.20
2022-09-05T00:45:25.658Z,2.80
2022-09-05T00:48:03.405Z,2.70
2022-09-05T00:50:38.603Z,3.83
2022-09-05T00:53:14.894Z,3.10
2022-09-05T00:55:58.813Z,3.10
2022-09-05T00:58:57.831Z,3.53
2022-09-05T01:01:38.514Z,3.30
2022-09-05T01:04:30.790Z,3.63
2022-09-05T01:07:28.044Z,4.17
2022-09-05T01:10:09.556Z,4.37
2022-09-05T01:12:56.257Z,4.50
2022-09-05T01:15:32.985Z,3.60
2022-09-05T01:18:29.856Z,3.57
2022-09-05T01:21:36.463Z,3.30
2022-09-05T01:24:34.857Z,3.10
2022-09-05T01:29:16.852Z,3.50
2022-09-05T01:30:44.455Z,3.47
2022-09-05T01:33:24.289Z,3.27
2022-09-05T01:36:05.905Z,3.27
2022-09-05T01:38:48.345Z,3.43
2022-09-05T01:41:39.934Z,3.70
2022-09-05T01:44:42.013Z,3.80
2022-09-05T01:47:30.840Z,3.73
2022-09-05T01:50:11.194Z,3.90
2022-09-05T01:53:00.396Z,3.50
2022-09-05T01:56:04.421Z,2.70
2022-09-05T01:58:51.324Z,3.00
2022-09-05T02:01:33.038Z,2.83
2022-09-05T02:04:24.629Z,3.40
2022-09-05T02:07:20.055Z,3.07
2022-09-05T02:15:59.232Z,3.00
2022-09-05T02:18:44.629Z,2.83
2022-09-05T02:21:24.195Z,3.00
2022-09-05T02:24:05.725Z,3.10
2022-09-05T02:26:41.344Z,2.60
2022-09-05T02:29:28.813Z,3.07
2022-09-05T02:32:03.330Z,2.97
2022-09-05T02:34:42.073Z,2.70
2022-09-05T02:37:26.286Z,2.97
2022-09-05T02:45:12.505Z,2.93
2022-09-05T02:45:21.004Z,2.97
2022-09-05T02:46:07.586Z,2.93
2022-09-05T02:48:56.134Z,2.93
2022-09-05T02:57:29.018Z,2.87
2022-09-05T02:58:04.784Z,3.10
2022-09-05T02:58:04.856Z,3.13
2022-09-05T03:00:21.445Z,3.57
2022-09-05T03:03:09.872Z,3.27
2022-09-05T03:05:45.606Z,2.80
2022-09-05T03:08:34.227Z,3.03
2022-09-05T03:11:38.207Z,3.07
2022-09-05T03:14:36.638Z,2.93
2022-09-05T03:17:55.053Z,3.03
2022-09-05T03:21:09.638Z,2.80
2022-09-05T03:24:17.315Z,2.77
2022-09-05T03:27:07.901Z,2.53
2022-09-05T03:30:06.607Z,2.50
2022-09-05T03:33:18.966Z,2.77
2022-09-05T03:36:26.306Z,3.07
2022-09-05T03:39:49.170Z,2.93
2022-09-05T03:42:45.336Z,2.90
2022-09-05T03:45:43.496Z,2.70
2022-09-05T03:48:45.125Z,2.93
2022-09-05T03:57:12.568Z,2.90
2022-09-05T03:57:27.545Z,2.57
2022-09-05T03:58:16.772Z,2.53
2022-09-05T04:01:34.250Z,2.90
2022-09-05T04:08:15.212Z,2.73
2022-09-05T04:08:18.447Z,2.93
2022-09-05T04:09:52.821Z,2.73
2022-09-05T04:12:26.502Z,2.50
2022-09-05T04:15:01.769Z,3.07
2022-09-05T04:17:37.697Z,3.10
2022-09-05T04:20:15.569Z,2.63
2022-09-05T04:23:11.385Z,2.40
2022-09-05T04:25:52.085Z,2.87
2022-09-05T04:28:57.174Z,3.07
2022-09-05T04:31:38.141Z,3.00
2022-09-05T04:34:27.143Z,2.50
2022-09-05T04:37:04.297Z,2.80
2022-09-05T04:39:36.081Z,2.67
2022-09-05T04:42:19.783Z,3.10
2022-09-05T04:44:55.836Z,3.33
2022-09-05T04:47:32.085Z,3.50
2022-09-05T04:50:08.361Z,3.97
2022-09-05T04:53:05.984Z,3.40
2022-09-05T04:55:46.874Z,3.57
2022-09-05T04:59:41.859Z,3.43
2022-09-05T05:06:01.607Z,3.20
2022-09-05T05:06:15.487Z,3.33
2022-09-05T05:07:14.797Z,3.70
2022-09-05T05:09:48.259Z,3.17
2022-09-05T05:17:57.033Z,3.40
2022-09-05T05:18:15.153Z,3.20
2022-09-05T05:18:56.464Z,3.07
2022-09-05T05:21:33.107Z,2.90
2022-09-05T05:24:12.127Z,2.60
2022-09-05T05:26:48.577Z,2.77
2022-09-05T05:29:32.750Z,2.80
2022-09-05T05:32:06.195Z,2.53
2022-09-05T05:34:38.417Z,2.57
2022-09-05T05:37:18.549Z,2.70
2022-09-05T05:39:50.603Z,2.57
2022-09-05T05:42:24.593Z,2.70
2022-09-05T05:44:55.024Z,2.40
2022-09-05T05:47:31.989Z,2.40
2022-09-05T05:50:11.678Z,2.47
2022-09-05T05:52:59.173Z,3.00
2022-09-05T05:55:56.064Z,2.33
2022-09-05T05:58:54.817Z,2.70
2022-09-05T06:02:06.701Z,2.30
2022-09-05T06:05:20.343Z,3.20
2022-09-05T06:10:39.053Z,2.40
2022-09-05T06:15:01.463Z,2.37
2022-09-05T06:15:11.526Z,2.40
2022-09-05T06:18:18.696Z,2.40
2022-09-05T06:22:09.575Z,2.43
2022-09-05T06:24:48.138Z,2.50
2022-09-05T06:27:33.919Z,2.10
2022-09-05T06:30:08.159Z,4.87
2022-09-05T06:33:04.244Z,3.70
2022-09-05T06:35:52.780Z,5.90
2022-09-05T06:38:50.260Z,5.13
2022-09-05T06:41:29.212Z,3.77
2022-09-05T06:44:20.069Z,3.70
2022-09-05T06:47:22.879Z,3.40
2022-09-05T06:50:06.285Z,3.40
2022-09-05T06:53:54.800Z,2.30
2022-09-05T06:56:37.041Z,2.07
2022-09-05T07:00:06.680Z,1.87
2022-09-05T07:02:59.582Z,1.80
2022-09-05T07:05:44.595Z,1.60
2022-09-05T07:08:35.825Z,2.20
2022-09-05T07:11:16.950Z,1.40
2022-09-05T07:14:12.475Z,1.43
2022-09-05T07:16:47.691Z,1.60
2022-09-05T07:19:27.332Z,1.70
2022-09-05T07:22:39.296Z,1.63
2022-09-05T07:25:10.721Z,1.60
2022-09-05T07:28:26.399Z,1.30
2022-09-05T07:30:35.324Z,1.30
2022-09-05T07:33:05.906Z,1.20
2022-09-05T07:35:41.525Z,1.33
2022-09-05T07:38:16.999Z,1.40
2022-09-05T07:40:53.392Z,1.20
2022-09-05T07:43:27.632Z,1.13
2022-09-05T07:46:11.961Z,1.40
2022-09-05T07:48:45.358Z,1.63
2022-09-05T07:56:37.656Z,1.37
2022-09-05T07:56:59.519Z,1.03
2022-09-05T07:57:27.026Z,1.10
2022-09-05T08:00:05.720Z,1.30
2022-09-05T08:02:36.051Z,1.20
2022-09-05T08:05:06.252Z,1.10
2022-09-05T08:07:49.878Z,1.00
2022-09-05T08:10:31.129Z,0.80
2022-09-05T08:13:24.765Z,1.00
2022-09-05T08:16:10.701Z,0.97
2022-09-05T08:18:50.552Z,1.13
2022-09-05T08:21:27.311Z,1.10
2022-09-05T08:24:12.966Z,1.00
2022-09-05T08:26:47.503Z,1.00
2022-09-05T08:29:32.760Z,1.30
2022-09-05T08:32:08.745Z,1.10
2022-09-05T08:34:45.767Z,1.30
2022-09-05T08:37:21.057Z,1.10
2022-09-05T08:40:10.002Z,1.00
2022-09-05T08:43:18.030Z,1.20
2022-09-05T08:46:47.130Z,1.20
2022-09-05T08:48:53.050Z,1.37
2022-09-05T08:51:41.904Z,1.00
2022-09-05T08:54:30.361Z,1.00
2022-09-05T08:57:08.370Z,1.10
2022-09-05T09:00:18.992Z,0.90
2022-09-05T09:02:56.651Z,1.00
2022-09-05T09:06:12.843Z,1.20
2022-09-05T09:08:54.605Z,1.00
2022-09-05T09:11:32.548Z,1.10
2022-09-05T09:14:31.700Z,0.90
2022-09-05T09:17:08.840Z,1.00
2022-09-05T09:19:48.864Z,1.07
2022-09-05T09:22:28.879Z,1.00
2022-09-05T09:25:17.332Z,0.80
2022-09-05T09:28:49.084Z,0.90
2022-09-05T09:31:14.479Z,0.90
2022-09-05T09:33:48.740Z,0.90
2022-09-05T09:36:49.414Z,0.80
2022-09-05T09:39:38.968Z,0.80
2022-09-05T09:42:33.181Z,1.00
2022-09-05T09:45:36.435Z,0.90
2022-09-05T09:48:37.923Z,0.97
2022-09-05T09:51:36.304Z,1.10
2022-09-05T09:54:47.421Z,0.90
2022-09-05T09:57:57.797Z,1.00
2022-09-05T10:00:29.654Z,0.90
2022-09-05T10:08:12.276Z,0.90
2022-09-05T10:10:46.585Z,1.00
2022-09-05T10:10:49.032Z,0.87
2022-09-05T10:13:30.400Z,0.80
2022-09-05T10:16:37.101Z,0.83
2022-09-05T10:22:38.184Z,0.90
2022-09-05T10:25:36.669Z,0.67
2022-09-05T10:28:09.050Z,0.93
2022-09-05T10:32:47.118Z,0.67
2022-09-05T10:35:15.499Z,0.70
2022-09-05T10:36:46.058Z,0.70
2022-09-05T10:39:26.096Z,0.70
2022-09-05T10:42:02.750Z,0.60
2022-09-05T10:44:40.900Z,0.80
2022-09-05T10:47:22.808Z,0.57
2022-09-05T10:50:07.104Z,0.80
2022-09-05T10:52:41.240Z,0.87
2022-09-05T10:55:22.334Z,0.70
2022-09-05T10:58:01.255Z,0.97
2022-09-05T11:02:28.366Z,0.80
2022-09-05T11:03:50.587Z,0.93
2022-09-05T11:06:25.005Z,0.77
2022-09-05T11:09:03.509Z,0.60
2022-09-05T11:11:46.309Z,0.70
2022-09-05T11:14:47.117Z,0.60
2022-09-05T11:17:28.523Z,0.70
2022-09-05T11:20:23.741Z,0.70
2022-09-05T11:23:11.328Z,0.90
2022-09-05T11:25:41.409Z,0.70
2022-09-05T11:28:17.644Z,0.83
2022-09-05T11:30:54.671Z,0.77
2022-09-05T11:39:52.457Z,0.60
2022-09-05T11:39:55.254Z,0.73
2022-09-05T11:40:50.633Z,0.67
2022-09-05T11:44:02.454Z,0.77
2022-09-05T11:46:50.646Z,0.60
2022-09-05T11:49:58.836Z,0.70
2022-09-05T11:53:01.023Z,0.60
2022-09-05T11:56:13.235Z,0.57
2022-09-05T11:59:33.535Z,0.67
2022-09-05T12:02:27.389Z,0.80
2022-09-05T12:05:49.518Z,0.70
2022-09-05T12:08:10.099Z,0.77
2022-09-05T12:10:51.867Z,0.60
2022-09-05T12:13:32.564Z,0.60
2022-09-05T12:16:19.317Z,0.60
2022-09-05T12:19:18.732Z,0.53
2022-09-05T12:22:23.711Z,0.87
2022-09-05T12:27:20.922Z,0.57
2022-09-05T12:29:26.070Z,0.40
2022-09-05T12:32:37.709Z,0.50
2022-09-05T12:36:10.277Z,0.50
2022-09-05T12:40:04.666Z,0.60
2022-09-05T12:41:39.185Z,0.50
2022-09-05T12:44:39.908Z,0.70
2022-09-05T12:46:00.420Z,0.43
2022-09-05T12:48:39.301Z,0.60
2022-09-05T12:51:11.511Z,0.73
2022-09-05T12:53:49.728Z,0.73
2022-09-05T12:57:27.754Z,0.73
2022-09-05T13:03:05.983Z,0.60
2022-09-05T13:03:13.073Z,0.70
2022-09-05T13:05:15.574Z,0.40
2022-09-05T13:07:49.184Z,0.70
2022-09-05T13:14:49.862Z,0.50
2022-09-05T13:14:52.473Z,0.60
2022-09-05T13:16:15.507Z,0.80
2022-09-05T13:19:02.547Z,0.70
2022-09-05T13:21:33.347Z,0.60
2022-09-05T13:24:12.516Z,0.70
2022-09-05T13:26:46.637Z,0.70
2022-09-05T13:29:20.017Z,0.50
2022-09-05T13:38:02.351Z,0.60
2022-09-05T13:38:13.582Z,0.60
2022-09-05T13:38:15.620Z,0.57
2022-09-05T13:40:43.492Z,0.70
2022-09-05T13:43:16.043Z,0.63
2022-09-05T13:46:11.373Z,0.70
2022-09-05T13:51:44.277Z,0.50
2022-09-05T13:54:36.709Z,0.60
2022-09-05T13:57:33.367Z,0.40
2022-09-05T14:00:39.651Z,0.93
2022-09-05T14:03:38.778Z,0.50
2022-09-05T14:06:49.239Z,0.60
2022-09-05T14:09:38.051Z,0.70
2022-09-05T14:12:20.717Z,0.47
2022-09-05T14:15:11.274Z,0.97
2022-09-05T14:18:00.042Z,0.73
2022-09-05T14:20:50.918Z,0.70
2022-09-05T14:23:22.669Z,0.67
2022-09-05T14:25:58.573Z,0.60
2022-09-05T14:28:33.372Z,0.80
2022-09-05T14:35:16.371Z,0.73
2022-09-05T14:37:43.109Z,0.60
2022-09-05T14:37:55.740Z,0.77
2022-09-05T14:40:52.763Z,0.70
2022-09-05T14:43:58.477Z,0.70
2022-09-05T14:46:41.634Z,0.70
2022-09-05T14:49:44.659Z,0.70
2022-09-05T14:52:23.388Z,0.70
2022-09-05T15:02:38.535Z,0.63
2022-09-05T15:02:42.232Z,0.80
2022-09-05T15:06:39.755Z,0.60
2022-09-05T15:12:17.766Z,0.60
2022-09-05T15:12:27.633Z,0.50
2022-09-05T15:15:00.955Z,0.67
2022-09-05T15:17:32.751Z,0.80
2022-09-05T15:20:07.516Z,0.90
2022-09-05T15:22:43.103Z,0.73
2022-09-05T15:25:18.909Z,0.80
2022-09-05T15:27:49.739Z,2.73
2022-09-05T15:30:22.129Z,3.50
2022-09-05T15:33:13.707Z,1.43
2022-09-05T15:35:44.638Z,0.80
2022-09-05T15:38:27.479Z,1.00
2022-09-05T15:41:22.108Z,1.03
2022-09-05T15:44:01.225Z,0.80
2022-09-05T15:46:41.579Z,1.00
2022-09-05T15:49:23.490Z,0.87
2022-09-05T15:51:54.049Z,1.30
2022-09-05T15:54:35.951Z,1.23
2022-09-05T15:57:17.441Z,1.40
2022-09-05T15:59:52.562Z,1.20
2022-09-05T16:02:24.953Z,1.03
2022-09-05T16:10:31.562Z,2.00
2022-09-05T16:10:45.158Z,3.33
2022-09-05T16:11:30.666Z,2.97
2022-09-05T16:13:53.186Z,2.90
2022-09-05T16:23:13.233Z,2.60
2022-09-05T16:23:15.226Z,3.40
2022-09-05T16:23:25.845Z,3.27
2022-09-05T16:25:16.317Z,4.50
2022-09-05T16:27:54.134Z,5.57
2022-09-05T16:30:28.720Z,5.13
2022-09-05T16:33:04.298Z,4.23
2022-09-05T16:35:37.209Z,3.70
2022-09-05T16:38:18.835Z,4.30
2022-09-05T16:41:06.831Z,5.40
2022-09-05T16:43:39.573Z,5.20
2022-09-05T16:46:12.749Z,5.70
2022-09-05T16:48:53.084Z,4.80
2022-09-05T16:51:34.899Z,6.10
2022-09-05T16:54:12.898Z,5.93
2022-09-05T16:56:45.035Z,5.90
2022-09-05T16:59:17.938Z,5.10
2022-09-05T17:02:08.660Z,5.33
2022-09-05T17:05:04.467Z,4.40
2022-09-05T17:07:58.659Z,3.10
2022-09-05T17:10:32.370Z,3.50
2022-09-05T17:13:02.138Z,3.47
2022-09-05T17:15:36.237Z,3.07
2022-09-05T17:18:20.141Z,2.60
2022-09-05T17:20:57.499Z,2.27
2022-09-05T17:27:19.902Z,2.37
2022-09-05T17:29:33.145Z,2.07
2022-09-05T17:32:36.430Z,2.50
2022-09-05T17:35:18.212Z,2.13
2022-09-05T17:38:16.091Z,2.10
2022-09-05T17:41:12.723Z,2.43
2022-09-05T17:43:44.053Z,3.10
2022-09-05T17:46:20.370Z,3.10
2022-09-05T17:49:19.405Z,3.97
2022-09-05T17:52:25.470Z,10.07
2022-09-05T17:54:55.998Z,9.30
2022-09-05T17:57:40.372Z,9.53
2022-09-05T18:00:45.871Z,8.30
2022-09-05T18:04:16.587Z,6.70
2022-09-05T18:10:12.515Z,4.90
2022-09-05T18:13:13.766Z,4.40
2022-09-05T18:16:06.564Z,4.50
2022-09-05T18:19:00.958Z,3.50
2022-09-05T18:21:43.402Z,2.93
2022-09-05T18:24:24.252Z,2.93
2022-09-05T18:29:57.859Z,2.03
2022-09-05T18:32:45.526Z,1.83
2022-09-05T18:35:36.477Z,1.60
2022-09-05T18:38:29.520Z,1.60
2022-09-05T18:41:21.732Z,1.90
2022-09-05T18:44:13.133Z,1.60
2022-09-05T18:46:51.962Z,1.50
2022-09-05T18:50:22.104Z,1.30
2022-09-05T18:52:23.849Z,1.30
2022-09-05T18:56:10.184Z,1.40
2022-09-05T18:57:52.007Z,1.70
2022-09-05T19:00:46.569Z,1.20
2022-09-05T19:03:19.272Z,1.40
2022-09-05T19:05:53.707Z,1.30
2022-09-05T19:08:36.742Z,1.30
2022-09-05T19:11:27.691Z,1.20
2022-09-05T19:14:26.642Z,1.50
2022-09-05T19:16:52.085Z,1.20
2022-09-05T19:19:24.962Z,1.30
2022-09-05T19:22:49.955Z,1.30
2022-09-05T19:24:49.808Z,1.07
2022-09-05T19:31:06.598Z,1.30
2022-09-05T19:36:45.282Z,1.40
2022-09-05T19:36:51.437Z,1.30
2022-09-05T19:36:52.703Z,1.30
2022-09-05T19:40:43.427Z,1.40
2022-09-05T19:47:30.549Z,1.20
2022-09-05T19:47:44.911Z,1.10
2022-09-05T19:47:55.833Z,1.20
2022-09-05T19:50:21.839Z,1.20
2022-09-05T19:52:53.685Z,1.20
2022-09-05T19:55:26.699Z,1.00
2022-09-05T19:58:19.207Z,1.57
2022-09-05T20:01:01.527Z,1.20
2022-09-05T20:03:38.176Z,1.23
2022-09-05T20:06:29.415Z,0.90
2022-09-05T20:09:10.690Z,1.23
2022-09-05T20:11:45.317Z,1.30
2022-09-05T20:14:23.238Z,1.50
2022-09-05T20:16:53.857Z,1.40
2022-09-05T20:19:29.438Z,1.47
2022-09-05T20:22:05.477Z,1.40
2022-09-05T20:24:51.557Z,1.47
2022-09-05T20:27:27.147Z,1.57
2022-09-05T20:30:00.745Z,1.43
2022-09-05T20:32:40.018Z,1.60
2022-09-05T20:39:47.516Z,1.47
2022-09-05T20:43:21.590Z,1.40
2022-09-05T20:43:22.631Z,1.60
2022-09-05T20:44:00.484Z,1.60
2022-09-05T20:50:28.686Z,1.43
2022-09-05T20:54:19.061Z,1.60
2022-09-05T20:54:26.711Z,2.20
2022-09-05T20:55:41.799Z,1.77
2022-09-05T20:58:14.163Z,1.87
2022-09-05T21:01:20.466Z,1.97
2022-09-05T21:03:45.284Z,1.80
2022-09-05T21:06:22.946Z,1.97
2022-09-05T21:08:53.535Z,1.90
2022-09-05T21:11:32.501Z,1.97
2022-09-05T21:14:04.946Z,2.00
2022-09-05T21:16:44.357Z,1.90
2022-09-05T21:19:26.947Z,2.40
2022-09-05T21:22:07.195Z,1.90
2022-09-05T21:24:36.261Z,1.97
2022-09-05T21:27:17.543Z,1.90
2022-09-05T21:29:49.610Z,1.70
2022-09-05T21:32:37.923Z,1.70
2022-09-05T21:35:33.882Z,2.03
2022-09-05T21:38:01.793Z,1.97
2022-09-05T21:40:30.679Z,2.50
2022-09-05T21:47:40.554Z,2.20
2022-09-05T21:47:48.364Z,2.60
2022-09-05T21:48:39.570Z,2.70
2022-09-05T21:51:13.234Z,2.43
2022-09-05T21:59:21.534Z,2.70
2022-09-05T21:59:25.917Z,2.23
2022-09-05T21:59:41.526Z,2.30
2022-09-05T22:02:17.485Z,2.60
2022-09-05T22:04:47.418Z,2.30
2022-09-05T22:07:24.272Z,2.40
2022-09-05T22:10:03.665Z,2.40
2022-09-05T22:12:39.237Z,2.27
2022-09-05T22:15:27.168Z,2.20
2022-09-05T22:18:16.602Z,2.10
2022-09-05T22:20:57.209Z,2.37
2022-09-05T22:23:44.748Z,2.20
2022-09-05T22:26:14.885Z,2.47
2022-09-05T22:28:49.204Z,2.33
2022-09-05T22:31:18.657Z,2.20
2022-09-05T22:33:48.270Z,2.03
2022-09-05T22:36:20.249Z,2.50
2022-09-05T22:38:51.257Z,2.63
2022-09-05T22:41:29.866Z,2.93
2022-09-05T22:43:59.357Z,3.20
2022-09-05T22:46:28.374Z,2.80
2022-09-05T22:48:57.406Z,2.70
2022-09-05T22:51:26.238Z,2.70
2022-09-05T22:53:56.659Z,3.30
2022-09-05T22:56:33.700Z,2.40
2022-09-05T22:59:02.779Z,2.70
2022-09-05T23:01:31.943Z,3.10
2022-09-05T23:04:00.988Z,3.13
2022-09-05T23:06:29.967Z,3.10
2022-09-05T23:09:00.429Z,3.20
2022-09-05T23:11:29.719Z,2.70
2022-09-05T23:13:58.818Z,3.40
2022-09-05T23:16:27.826Z,3.00
2022-09-05T23:18:56.779Z,2.50
2022-09-05T23:21:25.860Z,2.60
2022-09-05T23:23:54.659Z,2.77
2022-09-05T23:27:20.319Z,3.57
2022-09-05T23:29:49.317Z,3.20
2022-09-05T23:32:18.168Z,3.17
2022-09-05T23:34:46.998Z,2.97
2022-09-05T23:37:15.811Z,3.93
2022-09-05T23:39:44.761Z,3.20
2022-09-05T23:42:38.687Z,3.80
2022-09-05T23:45:08.524Z,3.33
2022-09-05T23:47:37.799Z,3.27
2022-09-05T23:50:07.668Z,3.57
2022-09-05T23:52:40.097Z,3.53
2022-09-05T23:55:10.093Z,3.17
2022-09-05T23:57:45.938Z,3.30
